Time;durP1;ratioP1;P1;durP2;ratioP2;P2;SDS_P1;SDS_P2;PMS_P1;PMS_P2;Temp;Humidity;BMP_temperature;BMP_pressure;BME280_temperature;BME280_humidity;BME280_pressure;Samples;Min_cycle;Max_cycle;Signal;HPM_P1;HPM_P2
2022/06/29 00:00:43;;;;;;;5.80;5.50;;;;;;;;;;5072462;28;24979;-47
2022/06/29 00:03:08;;;;;;;5.50;5.20;;;;;;;;;;5070233;28;24564;-46
2022/06/29 00:05:34;;;;;;;6.00;5.60;;;;;;;;;;5065730;28;24427;-45
2022/06/29 00:07:59;;;;;;;6.00;5.60;;;;;;;;;;5064118;28;24585;-46
2022/06/29 00:10:24;;;;;;;5.75;5.35;;;;;;;;;;5059010;28;24422;-45
2022/06/29 00:12:50;;;;;;;5.80;5.50;;;;;;;;;;5073489;28;24407;-46
2022/06/29 00:15:15;;;;;;;5.97;5.57;;;;;;;;;;5071694;28;24438;-46
2022/06/29 00:17:41;;;;;;;5.95;5.55;;;;;;;;;;5062435;28;24438;-46
2022/06/29 00:20:07;;;;;;;5.50;5.20;;;;;;;;;;5068283;28;24980;-46
2022/06/29 00:22:32;;;;;;;5.97;5.53;;;;;;;;;;5064890;28;24438;-47
2022/06/29 00:24:57;;;;;;;5.50;5.10;;;;;;;;;;5062430;28;24411;-47
2022/06/29 00:27:23;;;;;;;5.72;5.32;;;;;;;;;;5075300;28;24986;-47
2022/06/29 00:29:48;;;;;;;5.20;4.90;;;;;;;;;;5062756;28;24776;-47
2022/06/29 00:32:13;;;;;;;5.80;5.40;;;;;;;;;;5063871;28;24427;-47
2022/06/29 00:34:38;;;;;;;5.27;4.87;;;;;;;;;;5062968;28;24423;-47
2022/06/29 00:37:03;;;;;;;5.40;5.00;;;;;;;;;;5065911;28;24518;-47
2022/06/29 00:39:29;;;;;;;5.73;5.33;;;;;;;;;;5063671;28;24480;-46
2022/06/29 00:41:55;;;;;;;5.47;5.17;;;;;;;;;;5066758;28;24496;-46
2022/06/29 00:44:20;;;;;;;5.20;4.90;;;;;;;;;;5073891;28;24447;-47
2022/06/29 00:46:48;;;;;;;5.10;4.80;;;;;;;;;;5065207;28;24623;-47
2022/06/29 00:49:16;;;;;;;5.47;5.07;;;;;;;;;;5077720;28;21352;-47
2022/06/29 00:51:43;;;;;;;5.90;5.50;;;;;;;;;;5064995;28;24423;-46
2022/06/29 00:54:09;;;;;;;5.13;4.82;;;;;;;;;;5062477;28;24514;-46
2022/06/29 00:56:35;;;;;;;5.72;5.32;;;;;;;;;;5064606;28;24493;-45
2022/06/29 00:59:02;;;;;;;6.10;5.60;;;;;;;;;;5073740;28;24435;-45
2022/06/29 01:01:29;;;;;;;5.93;5.53;;;;;;;;;;5057355;28;24418;-46
2022/06/29 01:03:54;;;;;;;6.18;5.78;;;;;;;;;;5066781;28;24968;-46
2022/06/29 01:06:19;;;;;;;6.30;5.90;;;;;;;;;;5069146;28;24433;-46
2022/06/29 01:08:44;;;;;;;6.35;5.95;;;;;;;;;;5067157;28;24777;-46
2022/06/29 01:11:09;;;;;;;6.93;6.43;;;;;;;;;;5061272;28;24423;-47
2022/06/29 01:13:35;;;;;;;5.80;5.40;;;;;;;;;;5068067;28;24484;-46
2022/06/29 01:16:00;;;;;;;6.35;5.85;;;;;;;;;;5065076;28;25016;-47
2022/06/29 01:18:25;;;;;;;6.50;6.00;;;;;;;;;;5063946;28;25301;-47
2022/06/29 01:20:50;;;;;;;6.80;6.30;;;;;;;;;;5065501;28;24414;-47
2022/06/29 01:23:15;;;;;;;6.53;6.13;;;;;;;;;;5059684;28;24430;-47
2022/06/29 01:25:40;;;;;;;6.95;6.35;;;;;;;;;;5061274;28;24551;-47
2022/06/29 01:28:06;;;;;;;7.10;6.60;;;;;;;;;;5071688;28;24458;-47
2022/06/29 01:30:31;;;;;;;7.00;6.60;;;;;;;;;;5070374;28;24484;-47
2022/06/29 01:32:56;;;;;;;7.88;7.38;;;;;;;;;;5071348;28;24519;-47
2022/06/29 01:35:23;;;;;;;8.02;7.53;;;;;;;;;;5082415;28;24526;-47
2022/06/29 01:37:48;;;;;;;8.52;7.93;;;;;;;;;;5067995;28;24500;-47
2022/06/29 01:40:13;;;;;;;7.50;7.00;;;;;;;;;;5072330;28;24431;-47
2022/06/29 01:42:39;;;;;;;7.40;6.90;;;;;;;;;;5068866;28;24484;-47
2022/06/29 01:45:04;;;;;;;8.10;7.50;;;;;;;;;;5073167;28;24845;-48
2022/06/29 01:47:29;;;;;;;7.60;7.10;;;;;;;;;;5063335;28;25009;-47
2022/06/29 01:49:55;;;;;;;7.53;6.93;;;;;;;;;;5071993;28;24434;-47
2022/06/29 01:52:20;;;;;;;7.20;6.70;;;;;;;;;;5078082;28;24427;-47
2022/06/29 01:54:45;;;;;;;7.20;6.70;;;;;;;;;;5065725;28;25086;-47
2022/06/29 01:57:10;;;;;;;7.18;6.68;;;;;;;;;;5067314;28;24506;-47
2022/06/29 01:59:35;;;;;;;6.40;6.00;;;;;;;;;;5072729;28;24515;-47
2022/06/29 02:02:01;;;;;;;7.10;6.60;;;;;;;;;;5074972;28;24965;-47
2022/06/29 02:04:26;;;;;;;7.67;7.00;;;;;;;;;;5067122;28;24887;-47
2022/06/29 02:06:51;;;;;;;7.40;6.90;;;;;;;;;;5083805;28;24932;-46
2022/06/29 02:09:16;;;;;;;7.73;7.23;;;;;;;;;;5065130;28;25017;-46
2022/06/29 02:11:42;;;;;;;7.40;6.90;;;;;;;;;;5064821;28;24427;-45
2022/06/29 02:14:07;;;;;;;6.87;6.47;;;;;;;;;;5071195;28;24903;-45
2022/06/29 02:16:32;;;;;;;7.53;6.93;;;;;;;;;;5072429;28;25098;-47
2022/06/29 02:18:57;;;;;;;8.07;7.47;;;;;;;;;;5068845;28;24441;-47
2022/06/29 02:21:22;;;;;;;7.83;7.27;;;;;;;;;;5072661;28;24415;-47
2022/06/29 02:23:48;;;;;;;7.53;7.03;;;;;;;;;;5067891;28;24893;-47
2022/06/29 02:26:13;;;;;;;7.97;7.27;;;;;;;;;;5073912;28;24418;-47
2022/06/29 02:28:38;;;;;;;8.00;7.40;;;;;;;;;;5068119;28;24968;-48
2022/06/29 02:36:31;;;;;;;8.27;7.68;;;;;;;;;;5064971;28;25347;-47
2022/06/29 02:38:56;;;;;;;8.10;7.50;;;;;;;;;;5075302;28;24423;-47
2022/06/29 02:41:22;;;;;;;8.30;7.70;;;;;;;;;;5063002;28;24961;-47
2022/06/29 02:43:47;;;;;;;8.75;8.05;;;;;;;;;;5063494;28;24477;-46
2022/06/29 02:46:12;;;;;;;7.82;7.22;;;;;;;;;;5067402;28;24513;-46
2022/06/29 02:48:37;;;;;;;8.33;7.73;;;;;;;;;;5063941;28;24431;-45
2022/06/29 02:51:02;;;;;;;8.45;7.85;;;;;;;;;;5078604;28;24427;-45
2022/06/29 02:53:27;;;;;;;8.57;7.97;;;;;;;;;;5063526;28;24430;-45
2022/06/29 02:55:53;;;;;;;8.63;7.93;;;;;;;;;;5073430;28;24430;-46
2022/06/29 02:58:18;;;;;;;9.00;8.37;;;;;;;;;;5075142;28;25048;-47
2022/06/29 03:00:43;;;;;;;9.10;8.50;;;;;;;;;;5062197;28;25305;-47
2022/06/29 03:03:08;;;;;;;8.53;7.93;;;;;;;;;;5064381;28;24456;-46
2022/06/29 03:05:33;;;;;;;8.02;7.43;;;;;;;;;;5063204;28;24446;-47
2022/06/29 03:07:58;;;;;;;8.73;8.13;;;;;;;;;;5068001;28;24789;-48
2022/06/29 03:10:23;;;;;;;8.13;7.63;;;;;;;;;;5064067;28;24464;-47
2022/06/29 03:12:49;;;;;;;8.40;7.70;;;;;;;;;;5059913;28;24437;-47
2022/06/29 03:15:14;;;;;;;9.20;8.50;;;;;;;;;;5081524;28;24418;-48
2022/06/29 03:17:39;;;;;;;9.40;8.50;;;;;;;;;;5077515;28;24445;-48
2022/06/29 03:20:05;;;;;;;8.40;7.70;;;;;;;;;;5068423;28;24434;-48
2022/06/29 03:22:31;;;;;;;8.55;7.95;;;;;;;;;;5062476;28;24453;-48
2022/06/29 03:24:56;;;;;;;9.40;8.60;;;;;;;;;;5068028;28;24491;-47
2022/06/29 03:27:21;;;;;;;8.33;7.73;;;;;;;;;;5065596;28;24427;-47
2022/06/29 03:29:46;;;;;;;8.47;7.90;;;;;;;;;;5069714;28;24830;-47
2022/06/29 03:32:11;;;;;;;8.30;7.60;;;;;;;;;;5064018;28;24526;-48
2022/06/29 03:34:37;;;;;;;8.75;8.05;;;;;;;;;;5066557;28;24585;-47
2022/06/29 03:37:02;;;;;;;8.60;7.90;;;;;;;;;;5067729;28;24437;-48
2022/06/29 03:39:27;;;;;;;8.50;7.80;;;;;;;;;;5077368;28;24981;-48
2022/06/29 03:41:52;;;;;;;8.30;7.70;;;;;;;;;;5077477;28;24419;-47
2022/06/29 03:44:17;;;;;;;8.60;8.00;;;;;;;;;;5075603;28;24848;-47
2022/06/29 03:46:42;;;;;;;8.70;8.10;;;;;;;;;;5068418;28;24442;-47
2022/06/29 03:49:08;;;;;;;9.17;8.40;;;;;;;;;;5064974;28;24522;-46
2022/06/29 03:51:33;;;;;;;9.20;8.50;;;;;;;;;;5063152;28;24462;-46
2022/06/29 03:53:58;;;;;;;9.30;8.60;;;;;;;;;;5064168;28;24415;-49
2022/06/29 03:56:23;;;;;;;9.70;9.00;;;;;;;;;;5067586;28;24427;-48
2022/06/29 03:58:49;;;;;;;9.10;8.50;;;;;;;;;;5067297;28;24465;-48
2022/06/29 04:01:14;;;;;;;10.52;9.82;;;;;;;;;;5066038;28;24572;-48
2022/06/29 04:03:39;;;;;;;9.20;8.50;;;;;;;;;;5070400;28;24982;-48
2022/06/29 04:06:04;;;;;;;9.90;9.10;;;;;;;;;;5075509;28;24558;-48
2022/06/29 04:08:29;;;;;;;8.90;8.30;;;;;;;;;;5064142;28;24568;-48
2022/06/29 04:10:54;;;;;;;8.87;8.27;;;;;;;;;;5065858;28;24423;-48
2022/06/29 04:13:22;;;;;;;9.40;8.70;;;;;;;;;;5062249;28;24979;-48
2022/06/29 04:15:47;;;;;;;9.20;8.50;;;;;;;;;;5068275;28;25043;-49
2022/06/29 04:18:12;;;;;;;8.20;7.70;;;;;;;;;;5063446;28;24583;-49
2022/06/29 04:23:21;;;;;;;9.50;8.80;;;;;;;;;;5065425;28;24999;-48
2022/06/29 04:25:46;;;;;;;11.10;10.20;;;;;;;;;;5059877;28;24454;-48
2022/06/29 04:28:11;;;;;;;10.20;9.50;;;;;;;;;;5063145;28;24452;-49
2022/06/29 04:30:37;;;;;;;10.13;9.43;;;;;;;;;;5067678;28;24505;-47
2022/06/29 04:33:02;;;;;;;9.13;8.43;;;;;;;;;;5061536;28;24953;-46
2022/06/29 04:35:27;;;;;;;11.43;10.53;;;;;;;;;;5060273;28;24817;-45
2022/06/29 04:37:52;;;;;;;9.83;9.13;;;;;;;;;;5062917;28;24458;-45
2022/06/29 04:40:17;;;;;;;10.77;9.98;;;;;;;;;;5064823;28;24471;-45
2022/06/29 04:42:42;;;;;;;12.65;11.55;;;;;;;;;;5062759;28;24533;-46
2022/06/29 04:46:19;;;;;;;11.40;10.60;;;;;;;;;;5061804;28;24439;-46
2022/06/29 04:47:53;;;;;;;11.57;10.80;;;;;;;;;;5060591;28;24474;-46
2022/06/29 04:50:18;;;;;;;10.80;10.00;;;;;;;;;;5063779;28;24928;-47
2022/06/29 04:52:43;;;;;;;12.53;11.53;;;;;;;;;;5042975;28;24986;-47
2022/06/29 04:55:09;;;;;;;13.20;12.10;;;;;;;;;;5057694;28;24778;-46
2022/06/29 04:57:35;;;;;;;12.02;10.93;;;;;;;;;;5063263;28;24773;-47
2022/06/29 05:00:00;;;;;;;10.68;9.88;;;;;;;;;;5062085;28;25004;-46
2022/06/29 05:02:25;;;;;;;12.57;11.57;;;;;;;;;;5062821;28;24426;-45
2022/06/29 05:04:51;;;;;;;12.02;11.13;;;;;;;;;;5075620;28;24550;-44
2022/06/29 05:07:16;;;;;;;11.82;10.93;;;;;;;;;;5074488;28;24422;-46
2022/06/29 05:09:41;;;;;;;13.40;12.40;;;;;;;;;;5072747;28;24514;-45
2022/06/29 05:12:07;;;;;;;13.30;12.37;;;;;;;;;;5065671;28;24460;-45
2022/06/29 05:14:32;;;;;;;13.02;11.93;;;;;;;;;;5066009;28;24441;-45
2022/06/29 05:16:57;;;;;;;12.70;11.70;;;;;;;;;;5067011;28;25015;-45
2022/06/29 05:19:22;;;;;;;13.20;12.10;;;;;;;;;;5065565;28;24426;-45
2022/06/29 05:21:47;;;;;;;13.50;12.50;;;;;;;;;;5070075;28;24472;-45
2022/06/29 05:24:12;;;;;;;12.00;11.10;;;;;;;;;;5068853;28;24502;-45
2022/06/29 05:26:38;;;;;;;12.82;11.15;;;;;;;;;;5069567;28;24999;-46
2022/06/29 05:29:03;;;;;;;11.20;10.40;;;;;;;;;;5065857;28;24530;-47
2022/06/29 05:31:29;;;;;;;11.65;10.75;;;;;;;;;;5069278;28;24403;-46
2022/06/29 05:33:54;;;;;;;11.27;10.38;;;;;;;;;;5054291;28;24423;-45
2022/06/29 05:36:19;;;;;;;11.40;10.50;;;;;;;;;;5049076;28;24792;-50
2022/06/29 05:38:45;;;;;;;11.00;10.20;;;;;;;;;;5061435;28;24987;-47
2022/06/29 05:41:10;;;;;;;10.70;9.90;;;;;;;;;;5067403;28;24465;-46
2022/06/29 05:43:35;;;;;;;11.20;10.30;;;;;;;;;;5053979;28;24953;-45
2022/06/29 05:46:00;;;;;;;11.33;10.53;;;;;;;;;;5049011;28;24476;-46
2022/06/29 05:48:26;;;;;;;11.20;10.30;;;;;;;;;;5061585;28;24980;-46
2022/06/29 05:50:51;;;;;;;10.77;9.87;;;;;;;;;;5066373;28;24703;-46
2022/06/29 05:53:16;;;;;;;9.47;8.67;;;;;;;;;;5067585;28;24509;-46
2022/06/29 05:55:42;;;;;;;9.30;8.60;;;;;;;;;;5068729;28;24399;-46
2022/06/29 05:58:07;;;;;;;8.47;7.87;;;;;;;;;;5059980;28;24441;-46
2022/06/29 06:00:32;;;;;;;9.40;8.80;;;;;;;;;;5064910;28;25031;-46
2022/06/29 06:02:57;;;;;;;7.90;7.40;;;;;;;;;;5071092;28;24579;-48
2022/06/29 06:05:22;;;;;;;7.72;7.13;;;;;;;;;;5072488;28;24422;-46
2022/06/29 06:07:48;;;;;;;7.60;7.10;;;;;;;;;;5081968;28;24422;-46
2022/06/29 06:10:13;;;;;;;8.20;7.60;;;;;;;;;;5069751;28;24517;-46
2022/06/29 06:12:38;;;;;;;7.22;6.72;;;;;;;;;;5068050;28;24442;-46
2022/06/29 06:15:04;;;;;;;7.10;6.60;;;;;;;;;;5066988;28;24494;-46
2022/06/29 06:17:29;;;;;;;7.73;7.23;;;;;;;;;;5070105;28;24460;-46
2022/06/29 06:19:54;;;;;;;6.70;6.20;;;;;;;;;;5086073;28;24441;-46
2022/06/29 06:22:20;;;;;;;6.80;6.30;;;;;;;;;;5064601;28;24464;-45
2022/06/29 06:24:45;;;;;;;6.50;6.00;;;;;;;;;;5085638;28;24410;-46
2022/06/29 06:27:10;;;;;;;6.57;6.07;;;;;;;;;;5075227;28;24430;-46
2022/06/29 06:29:35;;;;;;;6.43;5.83;;;;;;;;;;5072986;28;24440;-46
2022/06/29 06:32:03;;;;;;;6.75;6.15;;;;;;;;;;5067936;28;24423;-45
2022/06/29 06:34:29;;;;;;;6.00;5.60;;;;;;;;;;5065477;28;24422;-45
2022/06/29 06:36:54;;;;;;;6.10;5.60;;;;;;;;;;5068843;28;24415;-47
2022/06/29 06:39:19;;;;;;;5.43;5.03;;;;;;;;;;5068707;28;24849;-46
2022/06/29 06:41:44;;;;;;;5.60;5.20;;;;;;;;;;5068668;28;24416;-46
2022/06/29 06:44:09;;;;;;;5.70;5.30;;;;;;;;;;5074072;28;24572;-46
2022/06/29 06:46:35;;;;;;;5.20;4.80;;;;;;;;;;5065625;28;25099;-45
2022/06/29 06:49:00;;;;;;;9.10;6.70;;;;;;;;;;5072603;28;24433;-46
2022/06/29 06:51:25;;;;;;;5.70;5.20;;;;;;;;;;5071391;28;24438;-46
2022/06/29 06:53:50;;;;;;;6.70;6.20;;;;;;;;;;5062729;28;24434;-47
2022/06/29 06:56:16;;;;;;;5.70;5.20;;;;;;;;;;5065959;28;24465;-46
2022/06/29 06:58:41;;;;;;;5.95;5.55;;;;;;;;;;5067726;28;24405;-46
2022/06/29 07:01:08;;;;;;;6.93;6.33;;;;;;;;;;5067961;28;24395;-46
2022/06/29 07:03:35;;;;;;;6.50;6.00;;;;;;;;;;5067822;28;24441;-45
2022/06/29 07:06:04;;;;;;;7.90;7.30;;;;;;;;;;5067602;28;24383;-47
2022/06/29 07:08:29;;;;;;;7.60;7.00;;;;;;;;;;5065758;28;24464;-54
2022/06/29 07:10:55;;;;;;;7.53;6.93;;;;;;;;;;5067895;28;24769;-46
2022/06/29 07:13:20;;;;;;;7.05;6.55;;;;;;;;;;5067740;28;25227;-46
2022/06/29 07:15:45;;;;;;;9.83;9.03;;;;;;;;;;5067766;28;24406;-46
2022/06/29 07:18:10;;;;;;;6.90;6.40;;;;;;;;;;5068108;28;24521;-46
2022/06/29 07:20:35;;;;;;;7.67;7.07;;;;;;;;;;5065695;28;24431;-48
2022/06/29 07:23:00;;;;;;;7.75;7.15;;;;;;;;;;5067615;28;24443;-47
2022/06/29 07:25:26;;;;;;;7.70;7.10;;;;;;;;;;5067756;28;24718;-47
2022/06/29 07:27:51;;;;;;;7.70;7.10;;;;;;;;;;5067380;28;24402;-47
2022/06/29 07:30:16;;;;;;;7.00;6.40;;;;;;;;;;5067273;28;24402;-46
2022/06/29 07:32:41;;;;;;;7.10;6.60;;;;;;;;;;5065163;28;25006;-47
2022/06/29 07:35:06;;;;;;;7.13;6.63;;;;;;;;;;5065942;28;24881;-46
2022/06/29 07:37:32;;;;;;;6.35;5.88;;;;;;;;;;5067197;28;24430;-45
2022/06/29 07:39:57;;;;;;;8.00;7.30;;;;;;;;;;5066955;28;24544;-46
2022/06/29 07:42:22;;;;;;;6.80;6.30;;;;;;;;;;5065539;28;25093;-46
2022/06/29 07:44:47;;;;;;;6.95;6.45;;;;;;;;;;5067028;28;24901;-46
2022/06/29 07:47:12;;;;;;;7.07;6.57;;;;;;;;;;5067434;28;24725;-46
2022/06/29 07:49:37;;;;;;;5.80;5.40;;;;;;;;;;5067181;28;24405;-46
2022/06/29 07:52:03;;;;;;;6.95;6.45;;;;;;;;;;5063217;28;24409;-46
2022/06/29 07:54:28;;;;;;;7.53;6.90;;;;;;;;;;5064951;28;24427;-46
2022/06/29 07:56:53;;;;;;;7.50;7.00;;;;;;;;;;5065226;28;24956;-46
2022/06/29 07:59:18;;;;;;;8.38;7.68;;;;;;;;;;5066788;28;24963;-46
2022/06/29 08:01:43;;;;;;;8.35;7.75;;;;;;;;;;5063460;28;24418;-46
2022/06/29 08:04:08;;;;;;;8.13;7.53;;;;;;;;;;5065225;28;24517;-46
2022/06/29 08:06:34;;;;;;;8.88;8.18;;;;;;;;;;5065076;28;24476;-46
2022/06/29 08:09:00;;;;;;;7.60;7.00;;;;;;;;;;5066671;28;24413;-45
2022/06/29 08:11:25;;;;;;;8.00;7.40;;;;;;;;;;5065176;28;25012;-45
2022/06/29 08:13:50;;;;;;;7.90;7.30;;;;;;;;;;5066239;28;24502;-45
2022/06/29 08:16:15;;;;;;;8.88;8.07;;;;;;;;;;5063148;28;24456;-46
2022/06/29 08:18:41;;;;;;;9.37;8.67;;;;;;;;;;5066635;28;24394;-45
2022/06/29 08:21:06;;;;;;;9.50;8.70;;;;;;;;;;5065013;28;24489;-46
2022/06/29 08:23:31;;;;;;;9.85;9.05;;;;;;;;;;5066214;28;24494;-46
2022/06/29 08:25:56;;;;;;;9.70;8.90;;;;;;;;;;5064752;28;24517;-45
2022/06/29 08:28:22;;;;;;;9.70;8.90;;;;;;;;;;5064935;28;24468;-46
2022/06/29 08:30:47;;;;;;;9.50;8.70;;;;;;;;;;5064688;28;24439;-46
2022/06/29 08:33:12;;;;;;;9.90;9.10;;;;;;;;;;5066002;28;24962;-46
2022/06/29 08:35:37;;;;;;;9.95;9.25;;;;;;;;;;5061967;28;24423;-46
2022/06/29 08:38:03;;;;;;;9.23;8.53;;;;;;;;;;5045450;28;24454;-45
2022/06/29 08:40:35;;;;;;;11.23;10.25;;;;;;;;;;5057402;28;25102;-46
2022/06/29 08:43:00;;;;;;;10.63;9.67;;;;;;;;;;5065861;28;24944;-46
2022/06/29 08:45:25;;;;;;;10.85;9.95;;;;;;;;;;5064405;28;24447;-45
2022/06/29 08:47:50;;;;;;;9.63;8.93;;;;;;;;;;5066023;28;24860;-45
2022/06/29 08:50:16;;;;;;;10.20;9.40;;;;;;;;;;5064593;28;24426;-45
2022/06/29 08:52:43;;;;;;;10.10;9.30;;;;;;;;;;5063133;28;25069;-46
2022/06/29 08:55:08;;;;;;;10.00;9.20;;;;;;;;;;5061931;28;24992;-45
2022/06/29 08:57:40;;;;;;;11.30;10.30;;;;;;;;;;5044783;28;24407;-46
2022/06/29 09:00:07;;;;;;;9.23;8.60;;;;;;;;;;5048113;28;25011;-46
2022/06/29 09:02:32;;;;;;;11.20;10.20;;;;;;;;;;5065881;28;24510;-46
2022/06/29 09:04:57;;;;;;;12.37;11.27;;;;;;;;;;5063824;28;24518;-46
2022/06/29 09:07:23;;;;;;;11.90;11.00;;;;;;;;;;5065745;28;24432;-46
2022/06/29 09:10:09;;;;;;;12.32;11.30;;;;;;;;;;5065833;28;24386;-46
2022/06/29 09:12:35;;;;;;;11.63;10.75;;;;;;;;;;5065658;28;24766;-45
2022/06/29 09:15:02;;;;;;;13.90;12.70;;;;;;;;;;5066038;28;24395;-47
2022/06/29 09:17:30;;;;;;;12.68;11.68;;;;;;;;;;5063945;28;24790;-46
2022/06/29 09:19:56;;;;;;;11.77;10.88;;;;;;;;;;5065984;28;24402;-47
2022/06/29 09:22:21;;;;;;;12.30;11.40;;;;;;;;;;5065950;28;24476;-46
2022/06/29 09:24:47;;;;;;;11.90;10.90;;;;;;;;;;5065585;28;24438;-46
2022/06/29 09:27:12;;;;;;;13.70;12.50;;;;;;;;;;5065996;28;24423;-46
2022/06/29 09:29:39;;;;;;;12.00;11.10;;;;;;;;;;5064146;28;24504;-46
2022/06/29 09:32:04;;;;;;;13.23;12.10;;;;;;;;;;5065629;28;24395;-46
2022/06/29 09:34:43;;;;;;;11.63;10.63;;;;;;;;;;5064278;28;26441;-46
2022/06/29 09:37:10;;;;;;;10.23;9.43;;;;;;;;;;5065195;28;24773;-46
2022/06/29 09:39:36;;;;;;;10.60;9.80;;;;;;;;;;5065599;28;24398;-46
2022/06/29 09:42:01;;;;;;;12.20;11.20;;;;;;;;;;5065051;28;24532;-47
2022/06/29 09:44:26;;;;;;;10.77;9.88;;;;;;;;;;5065339;28;25127;-46
2022/06/29 09:46:54;;;;;;;11.13;10.23;;;;;;;;;;5063190;28;24798;-46
2022/06/29 09:49:20;;;;;;;10.80;10.00;;;;;;;;;;5067782;28;24426;-47
2022/06/29 09:51:46;;;;;;;11.20;10.20;;;;;;;;;;5068987;28;24853;-47
2022/06/29 09:54:11;;;;;;;10.80;9.90;;;;;;;;;;5069390;28;24417;-47
2022/06/29 09:56:49;;;;;;;11.82;10.70;;;;;;;;;;5069105;28;24816;-46
2022/06/29 09:59:21;;;;;;;9.90;9.10;;;;;;;;;;5066962;28;24431;-46
2022/06/29 10:04:31;;;;;;;11.30;10.40;;;;;;;;;;5068997;28;24440;-47
2022/06/29 10:06:56;;;;;;;11.25;10.45;;;;;;;;;;5068970;28;24435;-45
2022/06/29 10:09:22;;;;;;;10.27;9.47;;;;;;;;;;5069276;28;24525;-46
2022/06/29 10:14:43;;;;;;;9.70;9.00;;;;;;;;;;5068671;28;24947;-46
2022/06/29 10:17:13;;;;;;;9.20;8.50;;;;;;;;;;5068675;28;24896;-47
2022/06/29 10:19:44;;;;;;;10.20;9.40;;;;;;;;;;5068811;28;24985;-47
2022/06/29 10:22:09;;;;;;;9.15;8.45;;;;;;;;;;5067228;28;24399;-46
2022/06/29 10:24:37;;;;;;;8.80;8.10;;;;;;;;;;5068423;28;24594;-49
2022/06/29 10:27:06;;;;;;;9.80;9.10;;;;;;;;;;5068380;28;24391;-46
2022/06/29 10:29:32;;;;;;;8.18;7.57;;;;;;;;;;5068635;28;24401;-46
2022/06/29 10:31:57;;;;;;;9.43;8.68;;;;;;;;;;5068153;28;24384;-46
2022/06/29 10:34:25;;;;;;;8.50;7.80;;;;;;;;;;5066293;28;24769;-46
2022/06/29 10:37:12;;;;;;;8.50;7.90;;;;;;;;;;5048300;28;24419;-46
2022/06/29 10:39:43;;;;;;;8.00;7.50;;;;;;;;;;5048304;28;24879;-46
2022/06/29 10:45:05;;;;;;;8.10;7.50;;;;;;;;;;5048024;28;24968;-46
2022/06/29 10:47:31;;;;;;;8.07;7.47;;;;;;;;;;5050321;28;24982;-46
2022/06/29 10:50:21;;;;;;;8.10;7.50;;;;;;;;;;5068077;28;24410;-46
2022/06/29 10:52:47;;;;;;;7.65;7.15;;;;;;;;;;5062667;28;24730;-46
2022/06/29 10:55:12;;;;;;;9.30;8.70;;;;;;;;;;5067951;28;24837;-46
2022/06/29 10:57:44;;;;;;;8.70;8.10;;;;;;;;;;5067751;28;24529;-46
2022/06/29 11:00:15;;;;;;;9.40;8.70;;;;;;;;;;5064956;28;24418;-47
2022/06/29 11:02:41;;;;;;;9.00;8.40;;;;;;;;;;5066421;28;24410;-47
2022/06/29 11:05:06;;;;;;;7.70;7.20;;;;;;;;;;5066160;28;24430;-46
2022/06/29 11:12:59;;;;;;;8.77;8.18;;;;;;;;;;5067163;28;24433;-46
2022/06/29 11:15:40;;;;;;;9.07;8.47;;;;;;;;;;5057110;28;24416;-46
2022/06/29 11:18:34;;;;;;;8.90;8.30;;;;;;;;;;5047434;28;24762;-45
2022/06/29 11:21:03;;;;;;;9.70;9.00;;;;;;;;;;5042510;28;24426;-46
2022/06/29 11:23:35;;;;;;;11.77;10.77;;;;;;;;;;5054370;28;25043;-45
2022/06/29 11:26:01;;;;;;;11.50;10.70;;;;;;;;;;5066195;28;24956;-46
2022/06/29 11:28:27;;;;;;;12.55;11.63;;;;;;;;;;5067248;28;24418;-47
2022/06/29 11:31:01;;;;;;;11.60;10.65;;;;;;;;;;5063719;28;24833;-48
2022/06/29 11:33:28;;;;;;;11.00;10.10;;;;;;;;;;5046928;28;24503;-45
2022/06/29 11:35:54;;;;;;;10.67;9.87;;;;;;;;;;5067122;28;24414;-46
2022/06/29 11:38:19;;;;;;;11.50;10.50;;;;;;;;;;5065582;28;24848;-46
2022/06/29 11:40:46;;;;;;;11.88;10.80;;;;;;;;;;5067469;28;24383;-46
2022/06/29 11:43:13;;;;;;;13.77;12.67;;;;;;;;;;5063377;28;24471;-46
2022/06/29 11:45:39;;;;;;;13.10;12.00;;;;;;;;;;5066968;28;24828;-46
2022/06/29 11:48:11;;;;;;;12.13;11.05;;;;;;;;;;5064519;28;24478;-46
2022/06/29 11:50:42;;;;;;;13.60;12.52;;;;;;;;;;5047384;28;24399;-46
2022/06/29 11:53:08;;;;;;;14.50;13.40;;;;;;;;;;5051919;28;24430;-45
2022/06/29 11:55:45;;;;;;;13.57;12.50;;;;;;;;;;5047309;28;24460;-46
2022/06/29 11:58:15;;;;;;;14.32;13.13;;;;;;;;;;5049848;28;24468;-45
2022/06/29 12:00:42;;;;;;;12.90;11.90;;;;;;;;;;5067295;28;24426;-47
2022/06/29 12:03:08;;;;;;;13.23;12.23;;;;;;;;;;5065091;28;24990;-47
2022/06/29 12:05:34;;;;;;;14.52;13.32;;;;;;;;;;5064716;28;24773;-46
2022/06/29 12:07:59;;;;;;;12.80;11.80;;;;;;;;;;5065434;28;24970;-46
2022/06/29 12:10:24;;;;;;;14.25;13.05;;;;;;;;;;5066784;28;24951;-46
2022/06/29 12:12:49;;;;;;;14.07;12.97;;;;;;;;;;5063987;28;24426;-46
2022/06/29 12:15:16;;;;;;;14.37;13.10;;;;;;;;;;5064131;28;24538;-47
2022/06/29 12:17:42;;;;;;;13.50;12.30;;;;;;;;;;5063123;28;24431;-47
2022/06/29 12:20:07;;;;;;;13.35;12.25;;;;;;;;;;5066413;28;24397;-46
2022/06/29 12:22:34;;;;;;;13.27;12.18;;;;;;;;;;5059439;28;24510;-45
2022/06/29 12:24:59;;;;;;;14.05;12.95;;;;;;;;;;5046413;28;24490;-47
2022/06/29 12:27:24;;;;;;;13.47;12.37;;;;;;;;;;5051423;28;24526;-47
2022/06/29 12:29:49;;;;;;;16.40;14.90;;;;;;;;;;5064066;28;24421;-47
2022/06/29 12:32:14;;;;;;;16.02;14.63;;;;;;;;;;5064429;28;24500;-47
2022/06/29 12:34:42;;;;;;;17.55;15.95;;;;;;;;;;5066376;28;24468;-46
2022/06/29 12:37:07;;;;;;;17.30;15.90;;;;;;;;;;5063733;28;24434;-46
2022/06/29 12:39:32;;;;;;;17.30;15.70;;;;;;;;;;5066149;28;24489;-46
2022/06/29 12:41:57;;;;;;;16.77;15.37;;;;;;;;;;5064134;28;24421;-46
2022/06/29 12:44:23;;;;;;;16.10;14.70;;;;;;;;;;5065891;28;24956;-46
2022/06/29 12:46:48;;;;;;;16.27;14.87;;;;;;;;;;5063422;28;24661;-45
2022/06/29 12:49:13;;;;;;;16.80;15.40;;;;;;;;;;5065811;28;24812;-45
2022/06/29 12:51:38;;;;;;;14.93;13.63;;;;;;;;;;5064367;28;24430;-46
2022/06/29 12:54:03;;;;;;;14.30;13.10;;;;;;;;;;5066136;28;24424;-45
2022/06/29 12:56:28;;;;;;;16.50;15.10;;;;;;;;;;5064361;28;24446;-45
2022/06/29 12:58:54;;;;;;;16.30;14.90;;;;;;;;;;5064409;28;24900;-46
2022/06/29 13:01:19;;;;;;;17.80;16.20;;;;;;;;;;5064458;28;25234;-46
2022/06/29 13:03:45;;;;;;;17.63;16.03;;;;;;;;;;5064961;28;24924;-46
2022/06/29 13:06:10;;;;;;;14.93;13.63;;;;;;;;;;5064715;28;24457;-47
2022/06/29 13:08:35;;;;;;;13.95;12.85;;;;;;;;;;5065991;28;25013;-46
2022/06/29 13:11:01;;;;;;;15.20;13.80;;;;;;;;;;5064341;28;24445;-47
2022/06/29 13:13:26;;;;;;;15.47;14.07;;;;;;;;;;5063291;28;25037;-47
2022/06/29 13:15:52;;;;;;;16.10;14.70;;;;;;;;;;5064317;28;24419;-47
2022/06/29 13:18:18;;;;;;;17.07;15.57;;;;;;;;;;5065392;28;24410;-46
2022/06/29 13:20:43;;;;;;;16.37;14.87;;;;;;;;;;5064420;28;24422;-47
2022/06/29 13:23:08;;;;;;;17.30;15.70;;;;;;;;;;5062998;28;24809;-46
2022/06/29 13:25:33;;;;;;;16.00;14.60;;;;;;;;;;5064656;28;24953;-47
2022/06/29 13:27:59;;;;;;;17.17;15.57;;;;;;;;;;5050506;28;24507;-47
2022/06/29 13:30:24;;;;;;;16.73;15.13;;;;;;;;;;5067702;28;24426;-47
2022/06/29 13:32:49;;;;;;;18.42;16.63;;;;;;;;;;5069671;28;24395;-47
2022/06/29 13:35:14;;;;;;;16.75;15.13;;;;;;;;;;5066090;28;24434;-47
2022/06/29 13:37:39;;;;;;;17.40;15.80;;;;;;;;;;5069715;28;24991;-45
2022/06/29 13:40:05;;;;;;;16.20;14.70;;;;;;;;;;5064808;28;24501;-46
2022/06/29 13:42:30;;;;;;;15.07;13.77;;;;;;;;;;5049134;28;24465;-46
2022/06/29 13:44:55;;;;;;;18.70;16.80;;;;;;;;;;5063100;28;24527;-46
2022/06/29 13:47:20;;;;;;;15.63;14.13;;;;;;;;;;5065797;28;24423;-45
2022/06/29 13:49:46;;;;;;;17.97;16.47;;;;;;;;;;5068261;28;24535;-45
2022/06/29 13:52:11;;;;;;;18.60;16.80;;;;;;;;;;5067732;28;25132;-46
2022/06/29 13:54:38;;;;;;;16.03;14.60;;;;;;;;;;5063749;28;24433;-46
2022/06/29 13:57:03;;;;;;;17.80;16.00;;;;;;;;;;5083278;28;24792;-46
2022/06/29 13:59:28;;;;;;;18.70;16.80;;;;;;;;;;5071608;28;24430;-46
2022/06/29 14:01:53;;;;;;;17.05;15.38;;;;;;;;;;5066393;28;24937;-46
2022/06/29 14:04:19;;;;;;;17.43;15.87;;;;;;;;;;5067142;28;24484;-45
2022/06/29 14:06:44;;;;;;;16.30;14.90;;;;;;;;;;5069393;28;24410;-46
2022/06/29 14:09:09;;;;;;;17.17;14.83;;;;;;;;;;5063211;28;24977;-46
2022/06/29 14:11:35;;;;;;;15.15;13.75;;;;;;;;;;5048647;28;24396;-49
2022/06/29 14:14:00;;;;;;;16.97;15.37;;;;;;;;;;5049423;28;24390;-47
2022/06/29 14:16:25;;;;;;;16.60;15.00;;;;;;;;;;5068238;28;24488;-46
2022/06/29 14:18:50;;;;;;;14.93;13.63;;;;;;;;;;5067150;28;24391;-46
2022/06/29 14:21:15;;;;;;;14.10;12.90;;;;;;;;;;5068402;28;24843;-46
2022/06/29 14:23:41;;;;;;;17.27;15.50;;;;;;;;;;5066592;28;24391;-46
2022/06/29 14:26:06;;;;;;;14.73;13.43;;;;;;;;;;5068927;28;24452;-47
2022/06/29 14:28:31;;;;;;;15.13;13.83;;;;;;;;;;5067505;28;24812;-47
2022/06/29 14:30:56;;;;;;;17.55;15.95;;;;;;;;;;5067903;28;24506;-47
2022/06/29 14:33:21;;;;;;;17.43;15.70;;;;;;;;;;5067125;28;24406;-47
2022/06/29 14:35:46;;;;;;;14.30;13.10;;;;;;;;;;5067149;28;24503;-47
2022/06/29 14:38:12;;;;;;;15.35;13.95;;;;;;;;;;5067466;28;24460;-47
2022/06/29 14:40:37;;;;;;;16.90;15.32;;;;;;;;;;5068551;28;24999;-47
2022/06/29 14:43:03;;;;;;;17.07;15.47;;;;;;;;;;5066763;28;24471;-47
2022/06/29 14:45:28;;;;;;;17.30;15.70;;;;;;;;;;5047516;28;24431;-47
2022/06/29 14:47:54;;;;;;;18.35;16.65;;;;;;;;;;5047443;28;24510;-47